sensor_id;sensor_type;location;lat;lon;timestamp;P1;durP1;ratioP1;P2;durP2;ratioP2
18544;SDS011;9402;51.460;7.276;2023-02-08T00:02:03;20.67;;;12.35;;
18544;SDS011;9402;51.460;7.276;2023-02-08T00:04:05;22.80;;;12.98;;
18544;SDS011;9402;51.460;7.276;2023-02-08T00:06:07;21.92;;;12.48;;
18544;SDS011;9402;51.460;7.276;2023-02-08T00:08:10;23.67;;;13.02;;
18544;SDS011;9402;51.460;7.276;2023-02-08T00:10:12;26.70;;;13.35;;
18544;SDS011;9402;51.460;7.276;2023-02-08T00:12:15;22.02;;;11.75;;
18544;SDS011;9402;51.460;7.276;2023-02-08T00:14:17;19.60;;;11.80;;
18544;SDS011;9402;51.460;7.276;2023-02-08T00:16:20;24.10;;;12.45;;
18544;SDS011;9402;51.460;7.276;2023-02-08T00:18:23;19.85;;;12.27;;
18544;SDS011;9402;51.460;7.276;2023-02-08T00:20:26;22.73;;;12.20;;
18544;SDS011;9402;51.460;7.276;2023-02-08T00:22:28;19.60;;;12.15;;
18544;SDS011;9402;51.460;7.276;2023-02-08T00:24:30;23.67;;;12.25;;
18544;SDS011;9402;51.460;7.276;2023-02-08T00:26:33;19.25;;;10.65;;
18544;SDS011;9402;51.460;7.276;2023-02-08T00:28:35;20.58;;;12.02;;
18544;SDS011;9402;51.460;7.276;2023-02-08T00:30:38;24.10;;;13.05;;
18544;SDS011;9402;51.460;7.276;2023-02-08T00:32:40;21.20;;;11.75;;
18544;SDS011;9402;51.460;7.276;2023-02-08T00:34:44;20.75;;;12.10;;
18544;SDS011;9402;51.460;7.276;2023-02-08T00:36:46;26.85;;;12.70;;
18544;SDS011;9402;51.460;7.276;2023-02-08T00:38:49;20.67;;;12.23;;
18544;SDS011;9402;51.460;7.276;2023-02-08T00:40:51;21.95;;;12.45;;
18544;SDS011;9402;51.460;7.276;2023-02-08T00:42:53;21.73;;;11.65;;
18544;SDS011;9402;51.460;7.276;2023-02-08T00:44:56;18.38;;;11.48;;
18544;SDS011;9402;51.460;7.276;2023-02-08T00:46:58;21.63;;;12.60;;
18544;SDS011;9402;51.460;7.276;2023-02-08T00:49:00;23.60;;;12.75;;
18544;SDS011;9402;51.460;7.276;2023-02-08T00:51:05;21.17;;;12.25;;
18544;SDS011;9402;51.460;7.276;2023-02-08T00:53:08;23.88;;;12.38;;
18544;SDS011;9402;51.460;7.276;2023-02-08T00:55:10;25.17;;;12.48;;
18544;SDS011;9402;51.460;7.276;2023-02-08T00:57:13;27.08;;;13.93;;
18544;SDS011;9402;51.460;7.276;2023-02-08T00:59:15;21.27;;;12.48;;
18544;SDS011;9402;51.460;7.276;2023-02-08T01:01:17;24.05;;;12.38;;
18544;SDS011;9402;51.460;7.276;2023-02-08T01:03:20;20.75;;;12.23;;
18544;SDS011;9402;51.460;7.276;2023-02-08T01:05:23;23.33;;;13.98;;
18544;SDS011;9402;51.460;7.276;2023-02-08T01:07:27;25.35;;;13.27;;
18544;SDS011;9402;51.460;7.276;2023-02-08T01:09:29;27.92;;;11.55;;
18544;SDS011;9402;51.460;7.276;2023-02-08T01:11:32;22.95;;;12.65;;
18544;SDS011;9402;51.460;7.276;2023-02-08T01:13:35;21.83;;;12.10;;
18544;SDS011;9402;51.460;7.276;2023-02-08T01:15:38;23.08;;;13.27;;
18544;SDS011;9402;51.460;7.276;2023-02-08T01:17:40;21.50;;;11.32;;
18544;SDS011;9402;51.460;7.276;2023-02-08T01:19:43;19.10;;;10.93;;
18544;SDS011;9402;51.460;7.276;2023-02-08T01:21:45;26.17;;;11.95;;
18544;SDS011;9402;51.460;7.276;2023-02-08T01:23:49;24.65;;;11.25;;
18544;SDS011;9402;51.460;7.276;2023-02-08T01:25:52;20.88;;;11.82;;
18544;SDS011;9402;51.460;7.276;2023-02-08T01:27:54;21.77;;;12.48;;
18544;SDS011;9402;51.460;7.276;2023-02-08T01:29:56;27.33;;;12.05;;
18544;SDS011;9402;51.460;7.276;2023-02-08T01:31:59;25.52;;;12.73;;
18544;SDS011;9402;51.460;7.276;2023-02-08T01:34:02;22.60;;;12.00;;
18544;SDS011;9402;51.460;7.276;2023-02-08T01:36:05;20.42;;;12.35;;
18544;SDS011;9402;51.460;7.276;2023-02-08T01:38:08;20.60;;;12.38;;
18544;SDS011;9402;51.460;7.276;2023-02-08T01:40:12;20.77;;;11.13;;
18544;SDS011;9402;51.460;7.276;2023-02-08T01:42:15;24.20;;;11.63;;
18544;SDS011;9402;51.460;7.276;2023-02-08T01:46:58;19.38;;;11.00;;
18544;SDS011;9402;51.460;7.276;2023-02-08T01:49:04;24.88;;;11.95;;
18544;SDS011;9402;51.460;7.276;2023-02-08T01:51:09;18.27;;;10.70;;
18544;SDS011;9402;51.460;7.276;2023-02-08T01:53:14;22.83;;;12.73;;
18544;SDS011;9402;51.460;7.276;2023-02-08T01:55:18;24.90;;;12.50;;
18544;SDS011;9402;51.460;7.276;2023-02-08T01:57:22;25.05;;;13.93;;
18544;SDS011;9402;51.460;7.276;2023-02-08T01:59:26;19.35;;;11.95;;
18544;SDS011;9402;51.460;7.276;2023-02-08T02:01:32;26.05;;;12.00;;
18544;SDS011;9402;51.460;7.276;2023-02-08T02:03:35;20.63;;;11.25;;
18544;SDS011;9402;51.460;7.276;2023-02-08T02:05:38;24.58;;;12.88;;
18544;SDS011;9402;51.460;7.276;2023-02-08T02:07:42;26.27;;;14.00;;
18544;SDS011;9402;51.460;7.276;2023-02-08T02:09:46;22.50;;;12.63;;
18544;SDS011;9402;51.460;7.276;2023-02-08T02:11:53;23.70;;;13.73;;
18544;SDS011;9402;51.460;7.276;2023-02-08T02:13:56;31.13;;;13.57;;
18544;SDS011;9402;51.460;7.276;2023-02-08T02:15:58;24.80;;;13.32;;
18544;SDS011;9402;51.460;7.276;2023-02-08T02:18:01;18.90;;;11.80;;
18544;SDS011;9402;51.460;7.276;2023-02-08T02:20:06;21.45;;;12.65;;
18544;SDS011;9402;51.460;7.276;2023-02-08T02:22:25;26.95;;;14.02;;
18544;SDS011;9402;51.460;7.276;2023-02-08T02:29:58;23.70;;;12.70;;
18544;SDS011;9402;51.460;7.276;2023-02-08T02:32:34;18.92;;;11.70;;
18544;SDS011;9402;51.460;7.276;2023-02-08T02:34:44;20.70;;;11.70;;
18544;SDS011;9402;51.460;7.276;2023-02-08T02:36:50;22.70;;;12.10;;
18544;SDS011;9402;51.460;7.276;2023-02-08T02:38:57;27.23;;;13.20;;
18544;SDS011;9402;51.460;7.276;2023-02-08T02:41:06;19.95;;;12.38;;
18544;SDS011;9402;51.460;7.276;2023-02-08T02:43:15;21.85;;;11.85;;
18544;SDS011;9402;51.460;7.276;2023-02-08T02:45:39;22.00;;;11.98;;
18544;SDS011;9402;51.460;7.276;2023-02-08T02:47:51;22.30;;;12.15;;
18544;SDS011;9402;51.460;7.276;2023-02-08T02:49:59;25.20;;;12.93;;
18544;SDS011;9402;51.460;7.276;2023-02-08T02:52:05;24.90;;;13.35;;
18544;SDS011;9402;51.460;7.276;2023-02-08T02:54:12;34.35;;;13.20;;
18544;SDS011;9402;51.460;7.276;2023-02-08T02:56:17;26.58;;;13.70;;
18544;SDS011;9402;51.460;7.276;2023-02-08T02:58:21;26.20;;;14.15;;
18544;SDS011;9402;51.460;7.276;2023-02-08T03:00:25;28.05;;;15.18;;
18544;SDS011;9402;51.460;7.276;2023-02-08T03:02:30;30.27;;;15.13;;
18544;SDS011;9402;51.460;7.276;2023-02-08T03:04:53;28.88;;;14.70;;
18544;SDS011;9402;51.460;7.276;2023-02-08T03:06:57;26.92;;;14.18;;
18544;SDS011;9402;51.460;7.276;2023-02-08T03:11:31;22.00;;;12.52;;
18544;SDS011;9402;51.460;7.276;2023-02-08T03:13:39;21.77;;;13.27;;
18544;SDS011;9402;51.460;7.276;2023-02-08T03:16:15;34.45;;;14.25;;
18544;SDS011;9402;51.460;7.276;2023-02-08T03:18:22;25.48;;;14.75;;
18544;SDS011;9402;51.460;7.276;2023-02-08T03:20:32;26.75;;;14.38;;
18544;SDS011;9402;51.460;7.276;2023-02-08T03:22:41;27.83;;;14.63;;
18544;SDS011;9402;51.460;7.276;2023-02-08T03:24:48;24.73;;;12.52;;
18544;SDS011;9402;51.460;7.276;2023-02-08T03:26:53;31.17;;;15.13;;
18544;SDS011;9402;51.460;7.276;2023-02-08T03:29:01;23.30;;;14.73;;
18544;SDS011;9402;51.460;7.276;2023-02-08T03:31:09;26.92;;;13.38;;
18544;SDS011;9402;51.460;7.276;2023-02-08T03:33:13;23.17;;;14.15;;
18544;SDS011;9402;51.460;7.276;2023-02-08T03:35:18;28.92;;;14.75;;
18544;SDS011;9402;51.460;7.276;2023-02-08T03:37:25;25.27;;;13.00;;
18544;SDS011;9402;51.460;7.276;2023-02-08T03:39:29;29.42;;;14.90;;
18544;SDS011;9402;51.460;7.276;2023-02-08T03:41:33;27.42;;;12.63;;
18544;SDS011;9402;51.460;7.276;2023-02-08T03:43:37;26.63;;;13.63;;
18544;SDS011;9402;51.460;7.276;2023-02-08T03:45:43;22.95;;;13.05;;
18544;SDS011;9402;51.460;7.276;2023-02-08T03:47:48;23.10;;;13.63;;
18544;SDS011;9402;51.460;7.276;2023-02-08T03:49:52;20.05;;;11.52;;
18544;SDS011;9402;51.460;7.276;2023-02-08T03:51:56;25.35;;;13.07;;
18544;SDS011;9402;51.460;7.276;2023-02-08T03:54:02;30.20;;;13.32;;
18544;SDS011;9402;51.460;7.276;2023-02-08T03:56:07;26.45;;;11.60;;
18544;SDS011;9402;51.460;7.276;2023-02-08T03:58:14;18.23;;;11.50;;
18544;SDS011;9402;51.460;7.276;2023-02-08T04:00:18;21.08;;;11.95;;
18544;SDS011;9402;51.460;7.276;2023-02-08T04:02:22;24.85;;;13.18;;
18544;SDS011;9402;51.460;7.276;2023-02-08T04:04:30;24.50;;;13.23;;
18544;SDS011;9402;51.460;7.276;2023-02-08T04:06:35;24.25;;;12.15;;
18544;SDS011;9402;51.460;7.276;2023-02-08T04:08:38;24.80;;;12.68;;
18544;SDS011;9402;51.460;7.276;2023-02-08T04:10:41;25.35;;;13.10;;
18544;SDS011;9402;51.460;7.276;2023-02-08T04:12:44;21.95;;;12.45;;
18544;SDS011;9402;51.460;7.276;2023-02-08T04:14:47;23.02;;;12.80;;
18544;SDS011;9402;51.460;7.276;2023-02-08T04:16:49;28.13;;;14.35;;
18544;SDS011;9402;51.460;7.276;2023-02-08T04:18:52;23.27;;;14.60;;
18544;SDS011;9402;51.460;7.276;2023-02-08T04:20:54;25.27;;;13.63;;
18544;SDS011;9402;51.460;7.276;2023-02-08T04:22:57;25.23;;;13.05;;
18544;SDS011;9402;51.460;7.276;2023-02-08T04:24:59;23.33;;;13.27;;
18544;SDS011;9402;51.460;7.276;2023-02-08T04:27:03;28.30;;;13.90;;
18544;SDS011;9402;51.460;7.276;2023-02-08T04:29:05;27.27;;;13.98;;
18544;SDS011;9402;51.460;7.276;2023-02-08T04:31:08;37.05;;;16.75;;
18544;SDS011;9402;51.460;7.276;2023-02-08T04:33:10;29.85;;;15.05;;
18544;SDS011;9402;51.460;7.276;2023-02-08T04:35:14;24.83;;;13.40;;
18544;SDS011;9402;51.460;7.276;2023-02-08T04:37:16;25.08;;;14.55;;
18544;SDS011;9402;51.460;7.276;2023-02-08T04:39:18;28.50;;;15.60;;
18544;SDS011;9402;51.460;7.276;2023-02-08T04:41:21;27.48;;;14.65;;
18544;SDS011;9402;51.460;7.276;2023-02-08T04:43:24;29.90;;;15.60;;
18544;SDS011;9402;51.460;7.276;2023-02-08T04:45:27;27.27;;;13.32;;
18544;SDS011;9402;51.460;7.276;2023-02-08T04:47:31;26.58;;;13.35;;
18544;SDS011;9402;51.460;7.276;2023-02-08T04:49:33;25.42;;;13.75;;
18544;SDS011;9402;51.460;7.276;2023-02-08T04:51:35;25.30;;;13.40;;
18544;SDS011;9402;51.460;7.276;2023-02-08T04:53:38;26.50;;;14.60;;
18544;SDS011;9402;51.460;7.276;2023-02-08T04:55:40;27.55;;;12.65;;
18544;SDS011;9402;51.460;7.276;2023-02-08T04:57:43;31.52;;;14.25;;
18544;SDS011;9402;51.460;7.276;2023-02-08T04:59:46;26.98;;;14.95;;
18544;SDS011;9402;51.460;7.276;2023-02-08T05:01:49;23.35;;;13.00;;
18544;SDS011;9402;51.460;7.276;2023-02-08T05:03:51;23.13;;;12.95;;
18544;SDS011;9402;51.460;7.276;2023-02-08T05:05:57;28.08;;;13.27;;
18544;SDS011;9402;51.460;7.276;2023-02-08T05:07:59;23.25;;;12.98;;
18544;SDS011;9402;51.460;7.276;2023-02-08T05:10:02;24.60;;;12.90;;
18544;SDS011;9402;51.460;7.276;2023-02-08T05:12:04;25.10;;;13.77;;
18544;SDS011;9402;51.460;7.276;2023-02-08T05:14:07;26.67;;;14.38;;
18544;SDS011;9402;51.460;7.276;2023-02-08T05:16:11;20.73;;;13.38;;
18544;SDS011;9402;51.460;7.276;2023-02-08T05:18:13;25.48;;;13.82;;
18544;SDS011;9402;51.460;7.276;2023-02-08T05:20:15;28.45;;;13.55;;
18544;SDS011;9402;51.460;7.276;2023-02-08T05:22:18;25.92;;;14.13;;
18544;SDS011;9402;51.460;7.276;2023-02-08T05:24:20;23.70;;;12.20;;
18544;SDS011;9402;51.460;7.276;2023-02-08T05:26:23;23.20;;;13.13;;
18544;SDS011;9402;51.460;7.276;2023-02-08T05:28:25;25.52;;;13.15;;
18544;SDS011;9402;51.460;7.276;2023-02-08T05:30:27;25.10;;;13.43;;
18544;SDS011;9402;51.460;7.276;2023-02-08T05:32:31;25.83;;;12.90;;
18544;SDS011;9402;51.460;7.276;2023-02-08T05:34:35;25.45;;;13.57;;
18544;SDS011;9402;51.460;7.276;2023-02-08T05:36:37;25.35;;;13.73;;
18544;SDS011;9402;51.460;7.276;2023-02-08T05:38:40;25.13;;;12.75;;
18544;SDS011;9402;51.460;7.276;2023-02-08T05:40:42;24.40;;;13.60;;
18544;SDS011;9402;51.460;7.276;2023-02-08T05:42:44;24.83;;;13.15;;
18544;SDS011;9402;51.460;7.276;2023-02-08T05:44:47;23.10;;;13.18;;
18544;SDS011;9402;51.460;7.276;2023-02-08T05:46:49;23.13;;;12.95;;
18544;SDS011;9402;51.460;7.276;2023-02-08T05:48:53;27.05;;;12.77;;
18544;SDS011;9402;51.460;7.276;2023-02-08T05:50:56;21.52;;;12.60;;
18544;SDS011;9402;51.460;7.276;2023-02-08T05:52:58;29.58;;;13.75;;
18544;SDS011;9402;51.460;7.276;2023-02-08T05:55:00;27.33;;;12.75;;
18544;SDS011;9402;51.460;7.276;2023-02-08T05:57:03;22.90;;;13.05;;
18544;SDS011;9402;51.460;7.276;2023-02-08T05:59:05;21.23;;;11.80;;
18544;SDS011;9402;51.460;7.276;2023-02-08T06:01:08;22.08;;;12.13;;
18544;SDS011;9402;51.460;7.276;2023-02-08T06:03:11;25.60;;;13.65;;
18544;SDS011;9402;51.460;7.276;2023-02-08T06:05:15;28.23;;;13.48;;
18544;SDS011;9402;51.460;7.276;2023-02-08T06:07:17;31.60;;;13.07;;
18544;SDS011;9402;51.460;7.276;2023-02-08T06:09:20;25.70;;;14.00;;
18544;SDS011;9402;51.460;7.276;2023-02-08T06:11:22;24.88;;;13.20;;
18544;SDS011;9402;51.460;7.276;2023-02-08T06:13:24;22.77;;;13.82;;
18544;SDS011;9402;51.460;7.276;2023-02-08T06:15:28;22.25;;;12.85;;
18544;SDS011;9402;51.460;7.276;2023-02-08T06:17:30;23.15;;;11.60;;
18544;SDS011;9402;51.460;7.276;2023-02-08T06:19:32;23.30;;;13.00;;
18544;SDS011;9402;51.460;7.276;2023-02-08T06:21:36;31.50;;;12.15;;
18544;SDS011;9402;51.460;7.276;2023-02-08T06:23:38;27.08;;;12.50;;
18544;SDS011;9402;51.460;7.276;2023-02-08T06:25:41;22.50;;;13.52;;
18544;SDS011;9402;51.460;7.276;2023-02-08T06:27:43;27.50;;;14.20;;
18544;SDS011;9402;51.460;7.276;2023-02-08T06:29:46;20.73;;;12.70;;
18544;SDS011;9402;51.460;7.276;2023-02-08T06:31:48;22.52;;;11.98;;
18544;SDS011;9402;51.460;7.276;2023-02-08T06:33:50;25.73;;;13.20;;
18544;SDS011;9402;51.460;7.276;2023-02-08T06:35:53;25.45;;;12.02;;
18544;SDS011;9402;51.460;7.276;2023-02-08T06:37:57;32.90;;;13.43;;
18544;SDS011;9402;51.460;7.276;2023-02-08T06:39:59;27.58;;;14.23;;
18544;SDS011;9402;51.460;7.276;2023-02-08T06:42:02;25.65;;;14.00;;
18544;SDS011;9402;51.460;7.276;2023-02-08T06:44:04;34.95;;;14.88;;
18544;SDS011;9402;51.460;7.276;2023-02-08T06:46:06;30.30;;;12.60;;
18544;SDS011;9402;51.460;7.276;2023-02-08T06:48:09;29.10;;;14.68;;
18544;SDS011;9402;51.460;7.276;2023-02-08T06:50:11;23.73;;;13.70;;
18544;SDS011;9402;51.460;7.276;2023-02-08T06:52:14;20.85;;;13.27;;
18544;SDS011;9402;51.460;7.276;2023-02-08T06:54:18;25.13;;;12.88;;
18544;SDS011;9402;51.460;7.276;2023-02-08T06:56:20;26.70;;;14.35;;
18544;SDS011;9402;51.460;7.276;2023-02-08T06:58:23;24.83;;;13.43;;
18544;SDS011;9402;51.460;7.276;2023-02-08T07:00:25;28.60;;;13.45;;
18544;SDS011;9402;51.460;7.276;2023-02-08T07:02:27;24.80;;;13.27;;
18544;SDS011;9402;51.460;7.276;2023-02-08T07:04:30;28.95;;;12.45;;
18544;SDS011;9402;51.460;7.276;2023-02-08T07:06:32;22.25;;;11.30;;
18544;SDS011;9402;51.460;7.276;2023-02-08T07:08:34;23.75;;;11.95;;
18544;SDS011;9402;51.460;7.276;2023-02-08T07:10:38;23.25;;;12.63;;
18544;SDS011;9402;51.460;7.276;2023-02-08T07:12:41;22.98;;;12.40;;
18544;SDS011;9402;51.460;7.276;2023-02-08T07:14:43;20.70;;;13.40;;
18544;SDS011;9402;51.460;7.276;2023-02-08T07:16:45;22.98;;;12.13;;
18544;SDS011;9402;51.460;7.276;2023-02-08T07:18:48;26.17;;;12.82;;
18544;SDS011;9402;51.460;7.276;2023-02-08T07:20:50;20.95;;;12.02;;
18544;SDS011;9402;51.460;7.276;2023-02-08T07:22:52;23.02;;;13.00;;
18544;SDS011;9402;51.460;7.276;2023-02-08T07:24:55;29.73;;;13.85;;
18544;SDS011;9402;51.460;7.276;2023-02-08T07:26:59;28.15;;;14.02;;
18544;SDS011;9402;51.460;7.276;2023-02-08T07:29:01;23.10;;;12.73;;
18544;SDS011;9402;51.460;7.276;2023-02-08T07:31:04;25.45;;;13.20;;
18544;SDS011;9402;51.460;7.276;2023-02-08T07:33:07;28.17;;;13.98;;
18544;SDS011;9402;51.460;7.276;2023-02-08T07:35:10;23.27;;;12.73;;
18544;SDS011;9402;51.460;7.276;2023-02-08T07:37:12;22.17;;;12.68;;
18544;SDS011;9402;51.460;7.276;2023-02-08T07:39:14;26.50;;;13.32;;
18544;SDS011;9402;51.460;7.276;2023-02-08T07:41:17;23.25;;;13.68;;
18544;SDS011;9402;51.460;7.276;2023-02-08T07:43:20;29.23;;;14.00;;
18544;SDS011;9402;51.460;7.276;2023-02-08T07:45:23;23.88;;;12.68;;
18544;SDS011;9402;51.460;7.276;2023-02-08T07:47:25;23.50;;;12.68;;
18544;SDS011;9402;51.460;7.276;2023-02-08T07:49:28;28.70;;;14.43;;
18544;SDS011;9402;51.460;7.276;2023-02-08T07:51:30;24.40;;;13.55;;
18544;SDS011;9402;51.460;7.276;2023-02-08T07:53:32;34.88;;;15.57;;
18544;SDS011;9402;51.460;7.276;2023-02-08T07:55:35;29.15;;;14.48;;
18544;SDS011;9402;51.460;7.276;2023-02-08T07:57:37;30.27;;;15.45;;
18544;SDS011;9402;51.460;7.276;2023-02-08T07:59:41;24.95;;;13.02;;
18544;SDS011;9402;51.460;7.276;2023-02-08T08:01:43;30.45;;;16.17;;
18544;SDS011;9402;51.460;7.276;2023-02-08T08:03:45;31.20;;;16.95;;
18544;SDS011;9402;51.460;7.276;2023-02-08T08:05:48;29.17;;;16.08;;
18544;SDS011;9402;51.460;7.276;2023-02-08T08:07:51;27.10;;;14.35;;
18544;SDS011;9402;51.460;7.276;2023-02-08T08:09:53;24.67;;;15.20;;
18544;SDS011;9402;51.460;7.276;2023-02-08T08:11:55;36.90;;;15.25;;
18544;SDS011;9402;51.460;7.276;2023-02-08T08:13:58;28.98;;;14.40;;
18544;SDS011;9402;51.460;7.276;2023-02-08T08:16:01;27.67;;;14.85;;
18544;SDS011;9402;51.460;7.276;2023-02-08T08:18:04;33.05;;;16.95;;
18544;SDS011;9402;51.460;7.276;2023-02-08T08:20:07;25.48;;;14.55;;
18544;SDS011;9402;51.460;7.276;2023-02-08T08:22:10;27.25;;;15.20;;
18544;SDS011;9402;51.460;7.276;2023-02-08T08:24:12;25.90;;;14.23;;
18544;SDS011;9402;51.460;7.276;2023-02-08T08:26:16;22.85;;;13.15;;
18544;SDS011;9402;51.460;7.276;2023-02-08T08:28:19;29.58;;;14.93;;
18544;SDS011;9402;51.460;7.276;2023-02-08T08:30:22;33.65;;;14.68;;
18544;SDS011;9402;51.460;7.276;2023-02-08T08:32:26;30.10;;;16.90;;
18544;SDS011;9402;51.460;7.276;2023-02-08T08:34:28;25.98;;;15.13;;
18544;SDS011;9402;51.460;7.276;2023-02-08T08:36:31;27.75;;;15.38;;
18544;SDS011;9402;51.460;7.276;2023-02-08T08:38:33;35.97;;;15.68;;
18544;SDS011;9402;51.460;7.276;2023-02-08T08:40:37;35.58;;;16.70;;
18544;SDS011;9402;51.460;7.276;2023-02-08T08:42:40;29.33;;;15.73;;
18544;SDS011;9402;51.460;7.276;2023-02-08T08:44:42;27.30;;;15.90;;
18544;SDS011;9402;51.460;7.276;2023-02-08T08:46:44;27.40;;;14.95;;
18544;SDS011;9402;51.460;7.276;2023-02-08T08:48:48;29.98;;;15.63;;
18544;SDS011;9402;51.460;7.276;2023-02-08T08:50:52;36.05;;;19.23;;
18544;SDS011;9402;51.460;7.276;2023-02-08T08:52:54;31.75;;;16.50;;
18544;SDS011;9402;51.460;7.276;2023-02-08T08:54:57;34.58;;;17.48;;
18544;SDS011;9402;51.460;7.276;2023-02-08T08:56:59;35.03;;;16.80;;
18544;SDS011;9402;51.460;7.276;2023-02-08T08:59:02;43.20;;;17.40;;
18544;SDS011;9402;51.460;7.276;2023-02-08T09:01:04;38.55;;;18.10;;
18544;SDS011;9402;51.460;7.276;2023-02-08T09:03:07;31.88;;;17.83;;
18544;SDS011;9402;51.460;7.276;2023-02-08T09:05:10;46.38;;;17.83;;
18544;SDS011;9402;51.460;7.276;2023-02-08T09:07:13;38.67;;;18.10;;
18544;SDS011;9402;51.460;7.276;2023-02-08T09:09:15;33.30;;;17.42;;
18544;SDS011;9402;51.460;7.276;2023-02-08T09:11:18;31.33;;;16.42;;
18544;SDS011;9402;51.460;7.276;2023-02-08T09:13:21;30.20;;;17.92;;
18544;SDS011;9402;51.460;7.276;2023-02-08T09:15:23;29.92;;;16.58;;
18544;SDS011;9402;51.460;7.276;2023-02-08T09:17:25;35.88;;;17.13;;
18544;SDS011;9402;51.460;7.276;2023-02-08T09:19:28;31.17;;;16.42;;
18544;SDS011;9402;51.460;7.276;2023-02-08T09:21:32;31.75;;;15.43;;
18544;SDS011;9402;51.460;7.276;2023-02-08T09:23:34;26.23;;;14.93;;
18544;SDS011;9402;51.460;7.276;2023-02-08T09:25:37;23.98;;;13.48;;
18544;SDS011;9402;51.460;7.276;2023-02-08T09:27:39;32.95;;;13.02;;
18544;SDS011;9402;51.460;7.276;2023-02-08T09:29:42;27.48;;;12.75;;
18544;SDS011;9402;51.460;7.276;2023-02-08T09:31:44;30.80;;;14.40;;
18544;SDS011;9402;51.460;7.276;2023-02-08T09:33:47;27.00;;;13.35;;
18544;SDS011;9402;51.460;7.276;2023-02-08T09:35:50;27.38;;;13.27;;
18544;SDS011;9402;51.460;7.276;2023-02-08T09:37:53;25.90;;;11.80;;
18544;SDS011;9402;51.460;7.276;2023-02-08T09:39:57;25.98;;;12.18;;
18544;SDS011;9402;51.460;7.276;2023-02-08T09:42:06;22.25;;;11.60;;
18544;SDS011;9402;51.460;7.276;2023-02-08T09:44:22;24.50;;;10.93;;
18544;SDS011;9402;51.460;7.276;2023-02-08T09:46:27;17.98;;;10.30;;
18544;SDS011;9402;51.460;7.276;2023-02-08T09:48:32;25.45;;;11.80;;
18544;SDS011;9402;51.460;7.276;2023-02-08T09:50:36;21.70;;;11.57;;
18544;SDS011;9402;51.460;7.276;2023-02-08T09:52:43;22.30;;;12.45;;
18544;SDS011;9402;51.460;7.276;2023-02-08T09:54:52;24.48;;;11.70;;
18544;SDS011;9402;51.460;7.276;2023-02-08T09:56:58;20.42;;;10.85;;
18544;SDS011;9402;51.460;7.276;2023-02-08T09:59:02;25.88;;;10.80;;
18544;SDS011;9402;51.460;7.276;2023-02-08T10:01:05;23.80;;;11.63;;
18544;SDS011;9402;51.460;7.276;2023-02-08T10:03:18;23.70;;;11.55;;
18544;SDS011;9402;51.460;7.276;2023-02-08T10:05:25;24.08;;;11.45;;
18544;SDS011;9402;51.460;7.276;2023-02-08T10:07:30;16.95;;;10.82;;
18544;SDS011;9402;51.460;7.276;2023-02-08T10:09:33;19.50;;;10.63;;
18544;SDS011;9402;51.460;7.276;2023-02-08T10:11:46;21.90;;;10.68;;
18544;SDS011;9402;51.460;7.276;2023-02-08T10:13:57;19.30;;;10.48;;
18544;SDS011;9402;51.460;7.276;2023-02-08T10:16:11;22.65;;;10.23;;
18544;SDS011;9402;51.460;7.276;2023-02-08T10:18:21;25.75;;;7.82;;
18544;SDS011;9402;51.460;7.276;2023-02-08T10:20:32;17.38;;;8.93;;
18544;SDS011;9402;51.460;7.276;2023-02-08T10:22:47;14.68;;;8.27;;
18544;SDS011;9402;51.460;7.276;2023-02-08T10:25:03;24.00;;;9.18;;
18544;SDS011;9402;51.460;7.276;2023-02-08T10:27:20;17.73;;;8.60;;
18544;SDS011;9402;51.460;7.276;2023-02-08T10:29:30;21.42;;;9.75;;
18544;SDS011;9402;51.460;7.276;2023-02-08T10:32:00;24.88;;;9.38;;
18544;SDS011;9402;51.460;7.276;2023-02-08T10:34:16;23.50;;;10.15;;
18544;SDS011;9402;51.460;7.276;2023-02-08T10:36:28;15.55;;;9.23;;
18544;SDS011;9402;51.460;7.276;2023-02-08T10:38:32;13.02;;;8.60;;
18544;SDS011;9402;51.460;7.276;2023-02-08T10:40:35;13.55;;;8.07;;
18544;SDS011;9402;51.460;7.276;2023-02-08T10:42:41;13.50;;;7.03;;
18544;SDS011;9402;51.460;7.276;2023-02-08T10:44:50;15.88;;;7.82;;
18544;SDS011;9402;51.460;7.276;2023-02-08T10:47:00;19.92;;;7.80;;
18544;SDS011;9402;51.460;7.276;2023-02-08T10:49:10;14.73;;;7.25;;
18544;SDS011;9402;51.460;7.276;2023-02-08T10:51:16;12.98;;;6.95;;
18544;SDS011;9402;51.460;7.276;2023-02-08T10:53:19;21.33;;;7.70;;
18544;SDS011;9402;51.460;7.276;2023-02-08T10:55:21;14.55;;;8.43;;
18544;SDS011;9402;51.460;7.276;2023-02-08T10:57:24;19.05;;;7.40;;
18544;SDS011;9402;51.460;7.276;2023-02-08T10:59:30;26.23;;;8.20;;
18544;SDS011;9402;51.460;7.276;2023-02-08T11:01:36;17.85;;;9.30;;
18544;SDS011;9402;51.460;7.276;2023-02-08T11:03:38;35.50;;;9.35;;
18544;SDS011;9402;51.460;7.276;2023-02-08T11:06:01;14.82;;;7.75;;
18544;SDS011;9402;51.460;7.276;2023-02-08T11:08:04;16.52;;;8.70;;
18544;SDS011;9402;51.460;7.276;2023-02-08T11:10:15;17.40;;;8.15;;
18544;SDS011;9402;51.460;7.276;2023-02-08T11:12:23;12.75;;;7.30;;
18544;SDS011;9402;51.460;7.276;2023-02-08T11:14:26;13.95;;;7.80;;
18544;SDS011;9402;51.460;7.276;2023-02-08T11:16:33;19.73;;;8.10;;
18544;SDS011;9402;51.460;7.276;2023-02-08T11:18:36;16.77;;;7.43;;
18544;SDS011;9402;51.460;7.276;2023-02-08T11:20:45;15.15;;;7.00;;
18544;SDS011;9402;51.460;7.276;2023-02-08T11:22:48;11.57;;;6.65;;
18544;SDS011;9402;51.460;7.276;2023-02-08T11:24:55;11.77;;;7.05;;
18544;SDS011;9402;51.460;7.276;2023-02-08T11:26:59;12.18;;;6.43;;
18544;SDS011;9402;51.460;7.276;2023-02-08T11:29:02;12.52;;;6.28;;
18544;SDS011;9402;51.460;7.276;2023-02-08T11:31:11;10.70;;;5.80;;
18544;SDS011;9402;51.460;7.276;2023-02-08T11:33:18;8.75;;;5.10;;
18544;SDS011;9402;51.460;7.276;2023-02-08T11:35:23;13.25;;;4.70;;
18544;SDS011;9402;51.460;7.276;2023-02-08T11:37:26;10.77;;;4.75;;
18544;SDS011;9402;51.460;7.276;2023-02-08T11:39:30;12.77;;;4.47;;
18544;SDS011;9402;51.460;7.276;2023-02-08T11:41:35;15.82;;;4.32;;
18544;SDS011;9402;51.460;7.276;2023-02-08T11:43:37;9.32;;;4.70;;
18544;SDS011;9402;51.460;7.276;2023-02-08T11:45:40;7.10;;;3.78;;
18544;SDS011;9402;51.460;7.276;2023-02-08T11:47:48;9.25;;;3.63;;
18544;SDS011;9402;51.460;7.276;2023-02-08T11:49:51;9.10;;;3.65;;
18544;SDS011;9402;51.460;7.276;2023-02-08T11:51:55;6.10;;;3.15;;
18544;SDS011;9402;51.460;7.276;2023-02-08T11:53:57;11.88;;;3.72;;
18544;SDS011;9402;51.460;7.276;2023-02-08T11:56:01;12.05;;;3.58;;
18544;SDS011;9402;51.460;7.276;2023-02-08T11:58:15;11.68;;;3.40;;
18544;SDS011;9402;51.460;7.276;2023-02-08T12:00:20;7.15;;;3.20;;
18544;SDS011;9402;51.460;7.276;2023-02-08T12:02:28;6.40;;;3.63;;
18544;SDS011;9402;51.460;7.276;2023-02-08T12:04:37;6.30;;;3.55;;
18544;SDS011;9402;51.460;7.276;2023-02-08T12:07:00;6.80;;;3.35;;
18544;SDS011;9402;51.460;7.276;2023-02-08T12:09:11;8.63;;;3.65;;
18544;SDS011;9402;51.460;7.276;2023-02-08T12:11:21;6.40;;;3.80;;
18544;SDS011;9402;51.460;7.276;2023-02-08T12:13:47;6.43;;;3.60;;
18544;SDS011;9402;51.460;7.276;2023-02-08T12:16:05;6.82;;;3.80;;
18544;SDS011;9402;51.460;7.276;2023-02-08T12:18:22;7.55;;;3.47;;
18544;SDS011;9402;51.460;7.276;2023-02-08T12:20:41;6.15;;;3.53;;
18544;SDS011;9402;51.460;7.276;2023-02-08T12:22:47;7.93;;;3.40;;
18544;SDS011;9402;51.460;7.276;2023-02-08T12:24:58;7.57;;;2.95;;
18544;SDS011;9402;51.460;7.276;2023-02-08T12:27:11;6.70;;;3.58;;
18544;SDS011;9402;51.460;7.276;2023-02-08T12:29:32;6.70;;;3.80;;
18544;SDS011;9402;51.460;7.276;2023-02-08T12:31:50;7.00;;;3.30;;
18544;SDS011;9402;51.460;7.276;2023-02-08T12:34:01;5.28;;;2.97;;
18544;SDS011;9402;51.460;7.276;2023-02-08T12:36:15;5.45;;;3.35;;